sensor_id;sensor_type;location;lat;lon;timestamp;temperature;humidity
68746;SHT31;66104;45.456;11.064;2023-02-21T00:02:08;9.63;69.83
68746;SHT31;66104;45.456;11.064;2023-02-21T00:05:01;9.61;69.87
68746;SHT31;66104;45.456;11.064;2023-02-21T00:07:55;9.57;69.86
68746;SHT31;66104;45.456;11.064;2023-02-21T00:10:48;9.57;69.90
68746;SHT31;66104;45.456;11.064;2023-02-21T00:13:43;9.55;69.94
68746;SHT31;66104;45.456;11.064;2023-02-21T00:16:36;9.49;70.23
68746;SHT31;66104;45.456;11.064;2023-02-21T00:19:30;9.45;70.45
68746;SHT31;66104;45.456;11.064;2023-02-21T00:22:24;9.37;70.66
68746;SHT31;66104;45.456;11.064;2023-02-21T00:25:18;9.32;70.93
68746;SHT31;66104;45.456;11.064;2023-02-21T00:28:12;9.31;71.07
68746;SHT31;66104;45.456;11.064;2023-02-21T00:31:06;9.31;71.04
68746;SHT31;66104;45.456;11.064;2023-02-21T00:34:00;9.29;71.14
68746;SHT31;66104;45.456;11.064;2023-02-21T00:36:53;9.27;71.13
68746;SHT31;66104;45.456;11.064;2023-02-21T00:39:47;9.26;70.95
68746;SHT31;66104;45.456;11.064;2023-02-21T00:42:40;9.22;70.97
68746;SHT31;66104;45.456;11.064;2023-02-21T00:45:33;9.13;71.24
68746;SHT31;66104;45.456;11.064;2023-02-21T00:48:26;9.01;71.56
68746;SHT31;66104;45.456;11.064;2023-02-21T00:51:19;8.93;71.95
68746;SHT31;66104;45.456;11.064;2023-02-21T00:54:13;8.92;72.35
68746;SHT31;66104;45.456;11.064;2023-02-21T00:57:06;8.96;72.44
68746;SHT31;66104;45.456;11.064;2023-02-21T01:00:00;8.98;72.49
68746;SHT31;66104;45.456;11.064;2023-02-21T01:02:57;9.00;72.49
68746;SHT31;66104;45.456;11.064;2023-02-21T01:05:50;9.02;72.54
68746;SHT31;66104;45.456;11.064;2023-02-21T01:08:44;9.07;72.31
68746;SHT31;66104;45.456;11.064;2023-02-21T01:11:38;9.12;71.98
68746;SHT31;66104;45.456;11.064;2023-02-21T01:14:33;9.14;71.76
68746;SHT31;66104;45.456;11.064;2023-02-21T01:17:26;9.15;71.59
68746;SHT31;66104;45.456;11.064;2023-02-21T01:20:21;9.15;71.42
68746;SHT31;66104;45.456;11.064;2023-02-21T01:23:13;9.16;71.32
68746;SHT31;66104;45.456;11.064;2023-02-21T01:26:07;9.15;71.13
68746;SHT31;66104;45.456;11.064;2023-02-21T01:29:00;9.13;71.10
68746;SHT31;66104;45.456;11.064;2023-02-21T01:31:54;9.09;71.18
68746;SHT31;66104;45.456;11.064;2023-02-21T01:34:47;9.09;71.31
68746;SHT31;66104;45.456;11.064;2023-02-21T01:37:41;9.07;71.38
68746;SHT31;66104;45.456;11.064;2023-02-21T01:40:34;9.03;71.47
68746;SHT31;66104;45.456;11.064;2023-02-21T01:43:29;9.05;71.46
68746;SHT31;66104;45.456;11.064;2023-02-21T01:46:23;9.02;71.44
68746;SHT31;66104;45.456;11.064;2023-02-21T01:49:17;8.99;71.44
68746;SHT31;66104;45.456;11.064;2023-02-21T01:52:11;8.95;71.41
68746;SHT31;66104;45.456;11.064;2023-02-21T01:55:06;8.92;71.35
68746;SHT31;66104;45.456;11.064;2023-02-21T01:58:01;8.90;71.30
68746;SHT31;66104;45.456;11.064;2023-02-21T02:00:54;8.77;71.54
68746;SHT31;66104;45.456;11.064;2023-02-21T02:03:47;8.73;71.86
68746;SHT31;66104;45.456;11.064;2023-02-21T02:06:42;8.76;71.75
68746;SHT31;66104;45.456;11.064;2023-02-21T02:09:36;8.72;71.55
68746;SHT31;66104;45.456;11.064;2023-02-21T02:15:47;8.63;71.79
68746;SHT31;66104;45.456;11.064;2023-02-21T02:22:10;8.62;71.78
68746;SHT31;66104;45.456;11.064;2023-02-21T02:25:19;8.61;71.85
68746;SHT31;66104;45.456;11.064;2023-02-21T02:28:29;8.66;71.70
68746;SHT31;66104;45.456;11.064;2023-02-21T02:34:46;8.63;71.55
68746;SHT31;66104;45.456;11.064;2023-02-21T02:37:32;8.59;71.66
68746;SHT31;66104;45.456;11.064;2023-02-21T02:40:24;8.60;71.66
68746;SHT31;66104;45.456;11.064;2023-02-21T02:43:14;8.59;71.49
68746;SHT31;66104;45.456;11.064;2023-02-21T02:46:00;8.55;71.54
68746;SHT31;66104;45.456;11.064;2023-02-21T02:48:45;8.53;71.54
68746;SHT31;66104;45.456;11.064;2023-02-21T02:51:27;8.51;71.55
68746;SHT31;66104;45.456;11.064;2023-02-21T02:54:06;8.51;71.77
68746;SHT31;66104;45.456;11.064;2023-02-21T02:56:44;8.51;71.70
68746;SHT31;66104;45.456;11.064;2023-02-21T02:59:22;8.50;71.40
68746;SHT31;66104;45.456;11.064;2023-02-21T03:08:19;8.36;71.01
68746;SHT31;66104;45.456;11.064;2023-02-21T03:11:13;8.31;71.01
68746;SHT31;66104;45.456;11.064;2023-02-21T03:13:55;8.29;71.10
68746;SHT31;66104;45.456;11.064;2023-02-21T03:16:40;8.24;71.23
68746;SHT31;66104;45.456;11.064;2023-02-21T03:19:23;8.20;71.28
68746;SHT31;66104;45.456;11.064;2023-02-21T03:22:04;8.19;71.24
68746;SHT31;66104;45.456;11.064;2023-02-21T03:24:45;8.18;71.22
68746;SHT31;66104;45.456;11.064;2023-02-21T03:27:26;8.18;71.16
68746;SHT31;66104;45.456;11.064;2023-02-21T03:30:22;8.24;70.98
68746;SHT31;66104;45.456;11.064;2023-02-21T03:33:00;8.27;70.85
68746;SHT31;66104;45.456;11.064;2023-02-21T03:35:36;8.32;71.08
68746;SHT31;66104;45.456;11.064;2023-02-21T03:38:14;8.31;70.61
68746;SHT31;66104;45.456;11.064;2023-02-21T03:40:50;8.25;70.20
68746;SHT31;66104;45.456;11.064;2023-02-21T03:43:30;8.13;70.32
68746;SHT31;66104;45.456;11.064;2023-02-21T03:46:08;8.03;70.43
68746;SHT31;66104;45.456;11.064;2023-02-21T03:48:46;7.96;70.62
68746;SHT31;66104;45.456;11.064;2023-02-21T03:51:27;7.93;70.93
68746;SHT31;66104;45.456;11.064;2023-02-21T03:54:03;7.89;71.44
68746;SHT31;66104;45.456;11.064;2023-02-21T03:56:43;7.87;71.82
68746;SHT31;66104;45.456;11.064;2023-02-21T03:59:27;7.90;71.99
68746;SHT31;66104;45.456;11.064;2023-02-21T04:02:05;7.97;71.49
68746;SHT31;66104;45.456;11.064;2023-02-21T04:04:42;8.01;71.04
68746;SHT31;66104;45.456;11.064;2023-02-21T04:07:24;8.00;71.21
68746;SHT31;66104;45.456;11.064;2023-02-21T04:09:59;7.95;71.97
68746;SHT31;66104;45.456;11.064;2023-02-21T04:12:44;7.85;72.13
68746;SHT31;66104;45.456;11.064;2023-02-21T04:15:21;7.76;72.04
68746;SHT31;66104;45.456;11.064;2023-02-21T04:17:58;7.68;72.16
68746;SHT31;66104;45.456;11.064;2023-02-21T04:20:37;7.63;72.43
68746;SHT31;66104;45.456;11.064;2023-02-21T04:23:17;7.57;73.13
68746;SHT31;66104;45.456;11.064;2023-02-21T04:25:57;7.55;73.58
68746;SHT31;66104;45.456;11.064;2023-02-21T04:28:47;7.60;73.85
68746;SHT31;66104;45.456;11.064;2023-02-21T04:31:24;7.65;73.56
68746;SHT31;66104;45.456;11.064;2023-02-21T04:34:03;7.69;73.48
68746;SHT31;66104;45.456;11.064;2023-02-21T04:36:47;7.71;73.39
68746;SHT31;66104;45.456;11.064;2023-02-21T04:39:23;7.75;73.16
68746;SHT31;66104;45.456;11.064;2023-02-21T04:42:01;7.77;72.53
68746;SHT31;66104;45.456;11.064;2023-02-21T04:44:39;7.75;71.94
68746;SHT31;66104;45.456;11.064;2023-02-21T04:47:28;7.73;71.91
68746;SHT31;66104;45.456;11.064;2023-02-21T04:50:05;7.75;71.91
68746;SHT31;66104;45.456;11.064;2023-02-21T04:52:45;7.73;72.03
68746;SHT31;66104;45.456;11.064;2023-02-21T04:55:22;7.71;72.03
68746;SHT31;66104;45.456;11.064;2023-02-21T04:58:00;7.71;71.76
68746;SHT31;66104;45.456;11.064;2023-02-21T05:00:37;7.67;71.51
68746;SHT31;66104;45.456;11.064;2023-02-21T05:03:15;7.63;71.60
68746;SHT31;66104;45.456;11.064;2023-02-21T05:05:52;7.60;71.74
68746;SHT31;66104;45.456;11.064;2023-02-21T05:08:30;7.61;71.80
68746;SHT31;66104;45.456;11.064;2023-02-21T05:11:08;7.63;71.71
68746;SHT31;66104;45.456;11.064;2023-02-21T05:13:46;7.65;71.70
68746;SHT31;66104;45.456;11.064;2023-02-21T05:16:23;7.63;71.70
68746;SHT31;66104;45.456;11.064;2023-02-21T05:18:59;7.61;71.46
68746;SHT31;66104;45.456;11.064;2023-02-21T05:21:37;7.61;71.33
68746;SHT31;66104;45.456;11.064;2023-02-21T05:24:18;7.58;71.51
68746;SHT31;66104;45.456;11.064;2023-02-21T05:26:55;7.53;71.76
68746;SHT31;66104;45.456;11.064;2023-02-21T05:29:33;7.49;71.95
68746;SHT31;66104;45.456;11.064;2023-02-21T05:32:13;7.46;71.79
68746;SHT31;66104;45.456;11.064;2023-02-21T05:34:50;7.44;71.87
68746;SHT31;66104;45.456;11.064;2023-02-21T05:37:27;7.40;72.12
68746;SHT31;66104;45.456;11.064;2023-02-21T05:40:06;7.36;72.23
68746;SHT31;66104;45.456;11.064;2023-02-21T05:42:46;7.35;72.03
68746;SHT31;66104;45.456;11.064;2023-02-21T05:45:24;7.38;71.85
68746;SHT31;66104;45.456;11.064;2023-02-21T05:48:01;7.42;71.78
68746;SHT31;66104;45.456;11.064;2023-02-21T05:50:42;7.41;71.87
68746;SHT31;66104;45.456;11.064;2023-02-21T05:53:19;7.41;71.99
68746;SHT31;66104;45.456;11.064;2023-02-21T05:55:56;7.45;72.17
68746;SHT31;66104;45.456;11.064;2023-02-21T05:58:32;7.41;72.30
68746;SHT31;66104;45.456;11.064;2023-02-21T06:01:12;7.37;72.55
68746;SHT31;66104;45.456;11.064;2023-02-21T06:03:49;7.30;72.83
68746;SHT31;66104;45.456;11.064;2023-02-21T06:06:26;7.25;72.52
68746;SHT31;66104;45.456;11.064;2023-02-21T06:09:02;7.25;72.53
68746;SHT31;66104;45.456;11.064;2023-02-21T06:11:39;7.25;72.62
68746;SHT31;66104;45.456;11.064;2023-02-21T06:14:17;7.23;72.61
68746;SHT31;66104;45.456;11.064;2023-02-21T06:16:55;7.24;72.83
68746;SHT31;66104;45.456;11.064;2023-02-21T06:19:34;7.28;73.13
68746;SHT31;66104;45.456;11.064;2023-02-21T06:22:12;7.31;73.13
68746;SHT31;66104;45.456;11.064;2023-02-21T06:24:50;7.29;73.08
68746;SHT31;66104;45.456;11.064;2023-02-21T06:27:28;7.24;73.07
68746;SHT31;66104;45.456;11.064;2023-02-21T06:30:06;7.20;73.16
68746;SHT31;66104;45.456;11.064;2023-02-21T06:32:51;7.18;73.31
68746;SHT31;66104;45.456;11.064;2023-02-21T06:35:27;7.21;73.24
68746;SHT31;66104;45.456;11.064;2023-02-21T06:38:06;7.26;73.05
68746;SHT31;66104;45.456;11.064;2023-02-21T06:40:45;7.32;72.91
68746;SHT31;66104;45.456;11.064;2023-02-21T06:43:22;7.34;72.89
68746;SHT31;66104;45.456;11.064;2023-02-21T06:45:59;7.31;72.97
68746;SHT31;66104;45.456;11.064;2023-02-21T06:48:37;7.29;73.11
68746;SHT31;66104;45.456;11.064;2023-02-21T06:51:14;7.34;73.05
68746;SHT31;66104;45.456;11.064;2023-02-21T06:53:57;7.33;72.95
68746;SHT31;66104;45.456;11.064;2023-02-21T06:56:35;7.33;72.97
68746;SHT31;66104;45.456;11.064;2023-02-21T06:59:14;7.33;72.85
68746;SHT31;66104;45.456;11.064;2023-02-21T07:01:50;7.42;73.14
68746;SHT31;66104;45.456;11.064;2023-02-21T07:04:27;7.53;73.19
68746;SHT31;66104;45.456;11.064;2023-02-21T07:07:04;7.61;73.07
68746;SHT31;66104;45.456;11.064;2023-02-21T07:09:41;7.66;72.99
68746;SHT31;66104;45.456;11.064;2023-02-21T07:12:19;7.72;72.86
68746;SHT31;66104;45.456;11.064;2023-02-21T07:14:58;7.72;72.84
68746;SHT31;66104;45.456;11.064;2023-02-21T07:17:35;7.77;72.87
68746;SHT31;66104;45.456;11.064;2023-02-21T07:20:13;7.82;73.03
68746;SHT31;66104;45.456;11.064;2023-02-21T07:22:50;7.87;73.06
68746;SHT31;66104;45.456;11.064;2023-02-21T07:25:27;7.90;72.78
68746;SHT31;66104;45.456;11.064;2023-02-21T07:28:05;7.90;72.43
68746;SHT31;66104;45.456;11.064;2023-02-21T07:30:45;7.96;72.25
68746;SHT31;66104;45.456;11.064;2023-02-21T07:33:22;8.01;72.14
68746;SHT31;66104;45.456;11.064;2023-02-21T07:35:59;8.04;72.18
68746;SHT31;66104;45.456;11.064;2023-02-21T07:38:37;8.04;71.94
68746;SHT31;66104;45.456;11.064;2023-02-21T07:41:15;8.01;71.84
68746;SHT31;66104;45.456;11.064;2023-02-21T07:43:51;7.96;71.80
68746;SHT31;66104;45.456;11.064;2023-02-21T07:46:28;7.95;71.98
68746;SHT31;66104;45.456;11.064;2023-02-21T07:49:06;7.99;72.06
68746;SHT31;66104;45.456;11.064;2023-02-21T07:51:42;8.02;72.03
68746;SHT31;66104;45.456;11.064;2023-02-21T07:54:19;8.10;72.05
68746;SHT31;66104;45.456;11.064;2023-02-21T07:56:57;8.20;72.38
68746;SHT31;66104;45.456;11.064;2023-02-21T07:59:34;8.33;72.35
68746;SHT31;66104;45.456;11.064;2023-02-21T08:02:11;8.49;72.24
68746;SHT31;66104;45.456;11.064;2023-02-21T08:04:50;8.61;72.32
68746;SHT31;66104;45.456;11.064;2023-02-21T08:07:27;8.70;72.57
68746;SHT31;66104;45.456;11.064;2023-02-21T08:10:07;8.80;72.49
68746;SHT31;66104;45.456;11.064;2023-02-21T08:12:50;8.83;72.65
68746;SHT31;66104;45.456;11.064;2023-02-21T08:15:28;8.84;72.77
68746;SHT31;66104;45.456;11.064;2023-02-21T08:18:06;8.84;72.84
68746;SHT31;66104;45.456;11.064;2023-02-21T08:20:52;8.86;73.29
68746;SHT31;66104;45.456;11.064;2023-02-21T08:23:30;8.96;73.18
68746;SHT31;66104;45.456;11.064;2023-02-21T08:26:07;9.07;72.92
68746;SHT31;66104;45.456;11.064;2023-02-21T08:28:44;9.17;73.06
68746;SHT31;66104;45.456;11.064;2023-02-21T08:31:21;9.25;73.11
68746;SHT31;66104;45.456;11.064;2023-02-21T08:33:58;9.33;73.04
68746;SHT31;66104;45.456;11.064;2023-02-21T08:36:36;9.41;72.99
68746;SHT31;66104;45.456;11.064;2023-02-21T08:39:15;9.49;72.83
68746;SHT31;66104;45.456;11.064;2023-02-21T08:41:51;9.56;72.77
68746;SHT31;66104;45.456;11.064;2023-02-21T08:44:28;9.63;72.80
68746;SHT31;66104;45.456;11.064;2023-02-21T08:47:05;9.71;72.67
68746;SHT31;66104;45.456;11.064;2023-02-21T08:49:43;9.77;72.56
68746;SHT31;66104;45.456;11.064;2023-02-21T08:52:22;9.81;72.49
68746;SHT31;66104;45.456;11.064;2023-02-21T08:54:59;9.89;72.40
68746;SHT31;66104;45.456;11.064;2023-02-21T08:57:37;9.96;72.40
68746;SHT31;66104;45.456;11.064;2023-02-21T09:00:16;10.08;72.37
68746;SHT31;66104;45.456;11.064;2023-02-21T09:02:57;10.19;72.22
68746;SHT31;66104;45.456;11.064;2023-02-21T09:05:34;10.30;72.04
68746;SHT31;66104;45.456;11.064;2023-02-21T09:08:11;10.41;71.74
68746;SHT31;66104;45.456;11.064;2023-02-21T09:10:49;10.50;71.45
68746;SHT31;66104;45.456;11.064;2023-02-21T09:13:28;10.55;71.08
68746;SHT31;66104;45.456;11.064;2023-02-21T09:16:06;10.58;71.08
68746;SHT31;66104;45.456;11.064;2023-02-21T09:18:42;10.64;70.97
68746;SHT31;66104;45.456;11.064;2023-02-21T09:21:27;10.71;70.52
68746;SHT31;66104;45.456;11.064;2023-02-21T09:24:05;10.79;70.32
68746;SHT31;66104;45.456;11.064;2023-02-21T09:26:42;10.84;70.23
68746;SHT31;66104;45.456;11.064;2023-02-21T09:29:19;10.89;70.18
68746;SHT31;66104;45.456;11.064;2023-02-21T09:32:11;10.94;70.03
68746;SHT31;66104;45.456;11.064;2023-02-21T09:34:47;10.98;69.86
68746;SHT31;66104;45.456;11.064;2023-02-21T09:37:24;11.02;69.82
68746;SHT31;66104;45.456;11.064;2023-02-21T09:40:02;11.05;69.77
68746;SHT31;66104;45.456;11.064;2023-02-21T09:42:45;11.04;69.88
68746;SHT31;66104;45.456;11.064;2023-02-21T09:45:29;11.07;69.85
68746;SHT31;66104;45.456;11.064;2023-02-21T09:48:08;11.12;69.66
68746;SHT31;66104;45.456;11.064;2023-02-21T09:50:50;11.17;69.54
68746;SHT31;66104;45.456;11.064;2023-02-21T09:53:32;11.25;69.48
68746;SHT31;66104;45.456;11.064;2023-02-21T09:56:22;11.30;69.26
68746;SHT31;66104;45.456;11.064;2023-02-21T09:59:07;11.36;69.18
68746;SHT31;66104;45.456;11.064;2023-02-21T10:01:48;11.38;69.21
68746;SHT31;66104;45.456;11.064;2023-02-21T10:04:46;11.44;69.21
68746;SHT31;66104;45.456;11.064;2023-02-21T10:07:38;11.52;69.20
68746;SHT31;66104;45.456;11.064;2023-02-21T10:10:27;11.62;69.09
68746;SHT31;66104;45.456;11.064;2023-02-21T10:13:15;11.70;68.92
68746;SHT31;66104;45.456;11.064;2023-02-21T10:16:10;11.77;68.68
68746;SHT31;66104;45.456;11.064;2023-02-21T10:18:55;11.83;68.51
68746;SHT31;66104;45.456;11.064;2023-02-21T10:21:43;11.92;68.37
68746;SHT31;66104;45.456;11.064;2023-02-21T10:24:22;12.03;68.14
68746;SHT31;66104;45.456;11.064;2023-02-21T10:27:00;12.11;67.91
68746;SHT31;66104;45.456;11.064;2023-02-21T10:29:47;12.21;67.80
68746;SHT31;66104;45.456;11.064;2023-02-21T10:32:32;12.30;67.55
68746;SHT31;66104;45.456;11.064;2023-02-21T10:35:10;12.38;67.38
68746;SHT31;66104;45.456;11.064;2023-02-21T10:37:48;12.45;66.95
68746;SHT31;66104;45.456;11.064;2023-02-21T10:40:31;12.51;66.73
68746;SHT31;66104;45.456;11.064;2023-02-21T10:43:14;12.54;66.76
68746;SHT31;66104;45.456;11.064;2023-02-21T10:46:00;12.55;66.96
68746;SHT31;66104;45.456;11.064;2023-02-21T10:48:43;12.58;67.05
68746;SHT31;66104;45.456;11.064;2023-02-21T10:51:30;12.59;67.00
68746;SHT31;66104;45.456;11.064;2023-02-21T10:54:18;12.63;67.14
68746;SHT31;66104;45.456;11.064;2023-02-21T10:56:56;12.67;67.14
68746;SHT31;66104;45.456;11.064;2023-02-21T10:59:39;12.72;67.25
68746;SHT31;66104;45.456;11.064;2023-02-21T11:02:27;12.74;67.26
68746;SHT31;66104;45.456;11.064;2023-02-21T11:05:09;12.79;67.40
68746;SHT31;66104;45.456;11.064;2023-02-21T11:11:04;12.91;67.31
68746;SHT31;66104;45.456;11.064;2023-02-21T11:13:42;13.00;67.28
68746;SHT31;66104;45.456;11.064;2023-02-21T11:16:19;13.07;67.05
68746;SHT31;66104;45.456;11.064;2023-02-21T11:19:04;13.15;67.05
68746;SHT31;66104;45.456;11.064;2023-02-21T11:21:43;13.24;66.99
68746;SHT31;66104;45.456;11.064;2023-02-21T11:24:28;13.30;66.97
68746;SHT31;66104;45.456;11.064;2023-02-21T11:27:06;13.38;66.87
68746;SHT31;66104;45.456;11.064;2023-02-21T11:29:46;13.43;66.80
68746;SHT31;66104;45.456;11.064;2023-02-21T11:32:27;13.51;66.51
68746;SHT31;66104;45.456;11.064;2023-02-21T11:35:20;13.57;66.38
68746;SHT31;66104;45.456;11.064;2023-02-21T11:38:01;13.65;66.17
68746;SHT31;66104;45.456;11.064;2023-02-21T11:41:00;13.74;65.93
68746;SHT31;66104;45.456;11.064;2023-02-21T11:43:53;13.80;65.88
68746;SHT31;66104;45.456;11.064;2023-02-21T11:49:22;13.95;65.60
68746;SHT31;66104;45.456;11.064;2023-02-21T11:52:08;14.00;65.15
68746;SHT31;66104;45.456;11.064;2023-02-21T11:54:49;14.04;65.10
68746;SHT31;66104;45.456;11.064;2023-02-21T11:57:27;14.13;64.94
68746;SHT31;66104;45.456;11.064;2023-02-21T12:00:24;14.20;63.93
68746;SHT31;66104;45.456;11.064;2023-02-21T12:03:20;14.21;63.39
68746;SHT31;66104;45.456;11.064;2023-02-21T12:06:24;14.24;63.34
68746;SHT31;66104;45.456;11.064;2023-02-21T12:09:14;14.26;63.41
68746;SHT31;66104;45.456;11.064;2023-02-21T12:18:03;14.30;63.07
68746;SHT31;66104;45.456;11.064;2023-02-21T12:21:07;14.33;62.68
68746;SHT31;66104;45.456;11.064;2023-02-21T12:24:12;14.32;62.65
68746;SHT31;66104;45.456;11.064;2023-02-21T12:27:07;14.38;62.73
68746;SHT31;66104;45.456;11.064;2023-02-21T12:30:00;14.44;62.44
68746;SHT31;66104;45.456;11.064;2023-02-21T12:32:57;14.54;62.30
68746;SHT31;66104;45.456;11.064;2023-02-21T12:35:52;14.59;62.16
68746;SHT31;66104;45.456;11.064;2023-02-21T12:38:48;14.65;62.30
68746;SHT31;66104;45.456;11.064;2023-02-21T12:41:40;14.72;62.10
68746;SHT31;66104;45.456;11.064;2023-02-21T12:44:29;14.75;61.93
68746;SHT31;66104;45.456;11.064;2023-02-21T12:47:18;14.76;61.61
68746;SHT31;66104;45.456;11.064;2023-02-21T12:50:05;14.77;61.79
68746;SHT31;66104;45.456;11.064;2023-02-21T12:52:48;14.79;61.47
68746;SHT31;66104;45.456;11.064;2023-02-21T12:55:33;14.81;61.51
68746;SHT31;66104;45.456;11.064;2023-02-21T12:58:16;14.88;61.38
68746;SHT31;66104;45.456;11.064;2023-02-21T13:00:59;14.95;61.25
68746;SHT31;66104;45.456;11.064;2023-02-21T13:03:53;15.00;61.06
68746;SHT31;66104;45.456;11.064;2023-02-21T13:06:46;15.09;60.84
68746;SHT31;66104;45.456;11.064;2023-02-21T13:09:32;15.16;60.51
68746;SHT31;66104;45.456;11.064;2023-02-21T13:12:14;15.25;60.49
68746;SHT31;66104;45.456;11.064;2023-02-21T13:14:56;15.34;60.22
68746;SHT31;66104;45.456;11.064;2023-02-21T13:17:47;15.36;59.88
68746;SHT31;66104;45.456;11.064;2023-02-21T13:20:32;15.33;59.69
68746;SHT31;66104;45.456;11.064;2023-02-21T13:23:18;15.32;59.91
68746;SHT31;66104;45.456;11.064;2023-02-21T13:27:00;15.35;59.78
68746;SHT31;66104;45.456;11.064;2023-02-21T13:30:12;15.39;59.79
68746;SHT31;66104;45.456;11.064;2023-02-21T13:32:56;15.36;60.07
68746;SHT31;66104;45.456;11.064;2023-02-21T13:35:34;15.37;60.06
68746;SHT31;66104;45.456;11.064;2023-02-21T13:38:14;15.36;60.08
68746;SHT31;66104;45.456;11.064;2023-02-21T13:41:04;15.35;60.09
68746;SHT31;66104;45.456;11.064;2023-02-21T13:43:46;15.35;60.06
68746;SHT31;66104;45.456;11.064;2023-02-21T13:49:48;15.26;60.12
68746;SHT31;66104;45.456;11.064;2023-02-21T13:52:35;15.23;60.25
68746;SHT31;66104;45.456;11.064;2023-02-21T13:59:33;15.20;60.33
68746;SHT31;66104;45.456;11.064;2023-02-21T14:02:19;15.21;60.32
68746;SHT31;66104;45.456;11.064;2023-02-21T14:05:02;15.20;60.47
68746;SHT31;66104;45.456;11.064;2023-02-21T14:07:40;15.17;60.60
68746;SHT31;66104;45.456;11.064;2023-02-21T14:10:35;15.17;60.50
68746;SHT31;66104;45.456;11.064;2023-02-21T14:13:19;15.14;60.59
68746;SHT31;66104;45.456;11.064;2023-02-21T14:16:14;15.11;60.74
68746;SHT31;66104;45.456;11.064;2023-02-21T14:18:55;15.06;60.55
68746;SHT31;66104;45.456;11.064;2023-02-21T14:21:39;15.02;60.59
68746;SHT31;66104;45.456;11.064;2023-02-21T14:24:20;14.99;60.63
68746;SHT31;66104;45.456;11.064;2023-02-21T14:27:03;14.97;60.71
68746;SHT31;66104;45.456;11.064;2023-02-21T14:33:21;14.87;61.16
68746;SHT31;66104;45.456;11.064;2023-02-21T14:36:01;14.86;61.09
68746;SHT31;66104;45.456;11.064;2023-02-21T14:38:43;14.80;61.19
68746;SHT31;66104;45.456;11.064;2023-02-21T14:41:29;14.77;61.41
68746;SHT31;66104;45.456;11.064;2023-02-21T14:44:29;14.69;61.55
68746;SHT31;66104;45.456;11.064;2023-02-21T14:50:33;14.54;61.91
68746;SHT31;66104;45.456;11.064;2023-02-21T14:53:41;14.49;62.14
68746;SHT31;66104;45.456;11.064;2023-02-21T14:57:03;14.43;62.14
68746;SHT31;66104;45.456;11.064;2023-02-21T15:00:09;14.36;62.38
68746;SHT31;66104;45.456;11.064;2023-02-21T15:03:04;14.29;62.35
68746;SHT31;66104;45.456;11.064;2023-02-21T15:05:46;14.17;62.54
68746;SHT31;66104;45.456;11.064;2023-02-21T15:08:42;14.05;62.66
68746;SHT31;66104;45.456;11.064;2023-02-21T15:11:24;13.90;63.26
68746;SHT31;66104;45.456;11.064;2023-02-21T15:14:17;13.84;63.46
68746;SHT31;66104;45.456;11.064;2023-02-21T15:16:57;13.83;63.59
68746;SHT31;66104;45.456;11.064;2023-02-21T15:19:40;13.82;63.69
68746;SHT31;66104;45.456;11.064;2023-02-21T15:22:19;13.79;63.65
68746;SHT31;66104;45.456;11.064;2023-02-21T15:27:58;13.69;63.86
68746;SHT31;66104;45.456;11.064;2023-02-21T15:30:56;13.62;63.91
68746;SHT31;66104;45.456;11.064;2023-02-21T15:33:38;13.58;63.96
68746;SHT31;66104;45.456;11.064;2023-02-21T15:36:19;13.53;64.01
68746;SHT31;66104;45.456;11.064;2023-02-21T15:38:59;13.51;64.04
68746;SHT31;66104;45.456;11.064;2023-02-21T15:41:49;13.47;64.14
68746;SHT31;66104;45.456;11.064;2023-02-21T15:44:28;13.46;64.33
68746;SHT31;66104;45.456;11.064;2023-02-21T15:47:12;13.45;64.40
68746;SHT31;66104;45.456;11.064;2023-02-21T15:49:56;13.43;64.42
68746;SHT31;66104;45.456;11.064;2023-02-21T15:52:40;13.42;64.39
68746;SHT31;66104;45.456;11.064;2023-02-21T15:55:29;13.38;64.36
68746;SHT31;66104;45.456;11.064;2023-02-21T15:58:13;13.38;64.24
68746;SHT31;66104;45.456;11.064;2023-02-21T16:01:06;13.37;64.28
68746;SHT31;66104;45.456;11.064;2023-02-21T16:03:44;13.31;64.09
68746;SHT31;66104;45.456;11.064;2023-02-21T16:06:22;13.26;64.09
68746;SHT31;66104;45.456;11.064;2023-02-21T16:09:03;13.21;64.16
68746;SHT31;66104;45.456;11.064;2023-02-21T16:11:54;13.16;64.21
68746;SHT31;66104;45.456;11.064;2023-02-21T16:14:38;13.15;64.41
68746;SHT31;66104;45.456;11.064;2023-02-21T16:17:21;13.13;64.47
68746;SHT31;66104;45.456;11.064;2023-02-21T16:20:12;13.12;64.50
68746;SHT31;66104;45.456;11.064;2023-02-21T16:23:11;13.09;64.59
68746;SHT31;66104;45.456;11.064;2023-02-21T16:25:57;13.06;64.73
68746;SHT31;66104;45.456;11.064;2023-02-21T16:28:53;13.02;64.80
68746;SHT31;66104;45.456;11.064;2023-02-21T16:31:31;13.00;64.90
68746;SHT31;66104;45.456;11.064;2023-02-21T16:34:10;13.02;65.00
68746;SHT31;66104;45.456;11.064;2023-02-21T16:36:48;13.02;64.97
68746;SHT31;66104;45.456;11.064;2023-02-21T16:39:33;13.03;65.01
68746;SHT31;66104;45.456;11.064;2023-02-21T16:42:10;13.01;65.07
68746;SHT31;66104;45.456;11.064;2023-02-21T16:44:47;13.00;65.15
68746;SHT31;66104;45.456;11.064;2023-02-21T16:47:23;13.02;65.05
68746;SHT31;66104;45.456;11.064;2023-02-21T16:50:00;13.02;64.93
68746;SHT31;66104;45.456;11.064;2023-02-21T16:52:45;13.01;64.98
68746;SHT31;66104;45.456;11.064;2023-02-21T16:55:21;12.99;65.08
68746;SHT31;66104;45.456;11.064;2023-02-21T16:58:00;13.00;65.01
68746;SHT31;66104;45.456;11.064;2023-02-21T17:00:51;13.01;65.02
68746;SHT31;66104;45.456;11.064;2023-02-21T17:03:30;13.03;65.01
68746;SHT31;66104;45.456;11.064;2023-02-21T17:06:09;13.02;64.98
68746;SHT31;66104;45.456;11.064;2023-02-21T17:08:52;13.04;65.02
68746;SHT31;66104;45.456;11.064;2023-02-21T17:11:29;13.06;64.97
68746;SHT31;66104;45.456;11.064;2023-02-21T17:14:06;13.07;64.89
68746;SHT31;66104;45.456;11.064;2023-02-21T17:16:43;13.07;64.82
68746;SHT31;66104;45.456;11.064;2023-02-21T17:19:21;13.06;64.89
68746;SHT31;66104;45.456;11.064;2023-02-21T17:21:58;13.05;64.85
68746;SHT31;66104;45.456;11.064;2023-02-21T17:24:34;13.04;64.95
68746;SHT31;66104;45.456;11.064;2023-02-21T17:27:11;13.01;64.95
68746;SHT31;66104;45.456;11.064;2023-02-21T17:29:49;12.99;64.99
68746;SHT31;66104;45.456;11.064;2023-02-21T17:32:25;12.99;65.06
68746;SHT31;66104;45.456;11.064;2023-02-21T17:35:02;12.99;65.11
68746;SHT31;66104;45.456;11.064;2023-02-21T17:37:43;13.00;65.07
68746;SHT31;66104;45.456;11.064;2023-02-21T17:40:20;13.02;65.10
68746;SHT31;66104;45.456;11.064;2023-02-21T17:42:58;13.05;65.07
68746;SHT31;66104;45.456;11.064;2023-02-21T17:45:36;13.07;65.07
68746;SHT31;66104;45.456;11.064;2023-02-21T17:48:14;13.09;65.04
68746;SHT31;66104;45.456;11.064;2023-02-21T17:50:51;13.11;65.14
68746;SHT31;66104;45.456;11.064;2023-02-21T17:53:26;13.12;65.15